Tiempo atmosférico en la estación meteorológica de Alicante/Alacant Aeropuerto, Alacant/Alicante (43 m.)



Fecha
DESCASC
Temp. máxima en grados centígrados (hora)
DESCASC
Temp. mínima en grados centígrados (hora)
DESCASC
Temp. media en grados centígrados
DESCASC
Racha de viento máxima en m/sg (hora)
DESCASC
Velocidad máxima media en intervalos de 10 minutos(hora)
DESCASC
Precipitaciones diarias en mm
DESCASC
Precipitaciones de 00:00 a 06:00 en mm
DESCASC
Precipitaciones de 06:00 a 12:00 en mm
DESCASC
Precipitaciones de 12:00 a 18:00 en mm
DESCASC
Precipitaciones de 18:00 a 24:00 en mm
DESCASC

Gráficas

Temp. máximas Temp. mínimas Temp. medias Precipitaciones Rachas de viento máximas Velocidades máximas media en intervalos de 10 minutos

Datos horarios

Fecha y hora oficial Temperatura (ºC) Velocidad del viento (km/h) Dirección del viento Racha (km/h) Dirección de racha Precipitación (mm) Presión (hPa) Tendencia (hPa) Humedad (%)
2018-05-27 23:00:00 21.2 18 Noroeste 28 Noroeste 0 1009.9 1.6 52
2018-05-27 22:00:00 20.9 8 Norte 17 Norte 0 1009.7 1.9 78
2018-05-27 21:00:00 22.1 10 Nordeste 17 Norte 0 1009.1 1.3 74
2018-05-27 20:00:00 23.7 9 Este 21 Sudeste 0 1008.3 0.5 64
2018-05-27 19:00:00 24 13 Sur 26 Sur 0 1007.8 -0.8 61
2018-05-27 18:00:00 23.7 17 Sur 32 Sudeste 0 1007.8 -1.6 61
2018-05-27 17:00:00 24.7 19 Sur 32 Sudeste 0 1007.8 -1.8 59
2018-05-27 16:00:00 24.6 19 Sur 33 Sur 0 1008.6 -1.4 59
2018-05-27 15:00:00 24.1 23 Sur 35 Sur 0 1009.4 -1.1 57
2018-05-27 14:00:00 25.5 19 Sur 30 Sur 0 1009.6 -1 55
2018-05-27 13:00:00 24.1 11 Sur 22 Sur 0 1010 -0.5 59
2018-05-27 12:00:00 23.3 13 Sur 28 Sur 0 1010.5 0.5 61
2018-05-27 11:00:00 21.9 14 Sur 26 Sudeste 0 1010.6 0.8 66
2018-05-27 10:00:00 21.6 12 Sur 21 Sur 0 1010.5 1.3 70
2018-05-27 09:00:00 19.8 5 Sudoeste 9 Sudoeste 0 1010 1.3 79
2018-05-27 08:00:00 17.4 0 Calma 15 Sudoeste 0 1009.8 1.8 88
2018-05-27 07:00:00 16.4 9 Sudoeste 13 Sudoeste 0 1009.2 0.8 91
2018-05-27 06:00:00 16.7 9 Sudoeste 15 Oeste 0 1008.7 -0.1 86
2018-05-27 05:00:00 16.6 8 Oeste 11 Oeste 0 1008 -1.7 90
2018-05-27 04:00:00 17.5 6 Oeste 8 Oeste 0 1008.4 -1.6 89
2018-05-27 03:00:00 18.6 3 Sudoeste 9 Oeste 0 1008.8 -1.9 86
2018-05-27 02:00:00 18.6 5 Oeste -- -- 0 1009.7 -1 88
2018-05-27 01:00:00 19.2 3 Nordeste 9 Norte 0 1010 0.3 86
2018-05-27 00:00:00 19.6 6 Sudeste 13 Este 0 1010.7 1.1 83
2018-05-26 23:00:00 19.9 9 Este 17 Este 0 1010.7 1.3 83
2018-05-26 22:00:00 19.2 10 Este 17 Este 0 1009.7 0.7 86
2018-05-26 21:00:00 20 13 Este 21 Este 0 1009.6 0.7 81
2018-05-26 20:00:00 20.7 14 Este 24 Este 0 1009.4 0.5 76
2018-05-26 19:00:00 21.9 15 Este 26 Norte 0 1009 -0.4 71
2018-05-26 18:00:00 22.1 18 Este 32 Este 0 1008.9 -1 70
2018-05-26 17:00:00 22.9 21 Este 32 Este 0 1008.9 -1 67
2018-05-26 16:00:00 22.8 22 Este 35 Este 0 1009.4 0 65
2018-05-26 15:00:00 22.9 23 Este 35 Este 0 1009.9 0.2 65
2018-05-26 14:00:00 23.3 23 Este 37 Este 0 1009.9 1 65
2018-05-26 13:00:00 23.1 24 Este 39 Este 0 1009.4 0.2 65
2018-05-26 12:00:00 22.4 26 Este 37 Este 0 1009.7 0.4 69
2018-05-26 11:00:00 21.9 23 Este 35 Este 0 1008.9 -0.3 70
2018-05-26 10:00:00 21.4 18 Nordeste 30 Este 0 1009.2 0.5 72
2018-05-26 09:00:00 20.2 11 Norte 17 Nordeste 0 1009.3 1 78
2018-05-26 08:00:00 18.7 8 Norte 13 Norte 0 1009.2 0.6 88
2018-05-26 07:00:00 17.9 8 Nordeste 22 Este 0 1008.7 -0.4 90
2018-05-26 06:00:00 17.4 12 Nordeste 18 Nordeste 0 1008.3 -0.9 93
2018-05-26 05:00:00 17.7 8 Nordeste 13 Nordeste 0 1008.6 -0.7 93
2018-05-26 04:00:00 17.9 7 Nordeste 11 Nordeste 0 1009.1 -0.5 93
2018-05-26 03:00:00 18 5 Este 15 Nordeste 0 1009.2 -0.2 91
2018-05-26 02:00:00 18 9 Este 15 Este 0 1009.3 0.3 92
2018-05-26 01:00:00 18.7 7 Este 21 Este 0 1009.6 0.7 92
2018-05-26 00:00:00 19.5 14 Este 22 Este 0 1009.4 0.8 85
2018-05-25 23:00:00 19.6 12 Nordeste 28 Este 0 1009 1.1 83
2018-05-25 22:00:00 19.9 18 Este 26 Este 0 1008.9 1.3 83
2018-05-25 21:00:00 20.3 18 Este 28 Este 0 1008.6 1 79
2018-05-25 20:00:00 21.4 19 Este 26 Este 0 1007.9 0.2 73
2018-05-25 19:00:00 22.6 14 Este 26 Este 0 1007.6 -0.1 69
2018-05-25 18:00:00 23.5 17 Este 28 Este 0 1007.6 -0.2 65
2018-05-25 17:00:00 24.9 18 Este 26 Este 0 1007.7 0.2 54
2018-05-25 16:00:00 24.5 15 Sudeste 28 Sur 0 1007.7 0 57
2018-05-25 15:00:00 24.7 17 Sudeste 32 Sudeste 0 1007.8 0.2 60
2018-05-25 14:00:00 25.6 15 Sur 30 Este 0 1007.5 0.1 52
2018-05-25 13:00:00 23.9 18 Este 30 Este 0 1007.7 0.5 60
2018-05-25 12:00:00 23.7 17 Este 33 Norte 0 1007.6 0.5 59
2018-05-25 11:00:00 25.9 16 Este 32 Este 0 1007.4 0.4 43
2018-05-25 10:00:00 24.7 4 Oeste 21 Oeste 0 1007.2 0.5 44
2018-05-25 09:00:00 21.9 12 Oeste 18 Oeste 0 1007.1 1.3 55
2018-05-25 08:00:00 20.5 8 Oeste 21 Sudoeste 0 1007 1.7 59
2018-05-25 07:00:00 20.3 8 Oeste 33 Este 0 1006.7 1.5 59
2018-05-25 06:00:00 20.7 24 Este 39 Este 0 1005.8 -0.3 66
2018-05-25 05:00:00 21.9 28 Nordeste 61 Este 0 1005.3 -- 59
2018-05-25 04:00:00 22.1 44 Este 63 Este 0 1005.2 -- 55
2018-05-25 03:00:00 22.1 29 Este 42 Este 0 1006.1 -2.1 56
2018-05-25 02:00:00 22.9 16 Nordeste 28 Nordeste 0 -- -- 44
2018-05-25 01:00:00 23.4 15 Nordeste 35 Este 0 -- -- 42
2018-05-25 00:00:00 22.8 24 Este 37 Este 0 1008.2 0.5 50
2018-05-24 23:00:00 22.2 27 Este 39 Nordeste 0 1008.1 0.5 60
2018-05-24 22:00:00 22.5 27 Este 41 Este 0 1008 0.4 57
2018-05-24 21:00:00 22.4 31 Este 50 Este 0 1007.7 -0.4 57
2018-05-24 20:00:00 22.8 31 Este 50 Este 0 1007.6 -1.2 59
2018-05-24 19:00:00 24.1 34 Este 50 Este 0 1007.6 -2 51
2018-05-24 18:00:00 26.6 37 Este 54 Este 0 1008.1 -2.1 36
2018-05-24 17:00:00 26.4 35 Este 54 Este 0 1008.8 -2.1 39
2018-05-24 16:00:00 26.7 35 Este 50 Este 0 1009.6 -2 34
2018-05-24 15:00:00 27 31 Este 48 Nordeste 0 1010.2 -1.7 34
2018-05-24 14:00:00 25.4 31 Este 52 Este 0 1010.9 -1 40
2018-05-24 13:00:00 26 30 Este 45 Este 0 1011.6 -- 34
2018-05-24 12:00:00 26.3 27 Este 42 Este 0 1011.9 0.2 33
2018-05-24 11:00:00 24.8 24 Nordeste 37 Este 0 1011.9 1.3 38
2018-05-24 10:00:00 23.7 14 Este 24 Este 0 -- -- 42
2018-05-24 09:00:00 21.4 12 Nordeste 39 Nordeste 0 1011.7 -0.2 50
2018-05-24 08:00:00 20.6 22 Nordeste 37 Nordeste 0 1010.6 -0.8 55
2018-05-24 07:00:00 20.3 17 Nordeste 32 Nordeste 0 1011.2 -1.5 54
2018-05-24 06:00:00 20.4 12 Nordeste 33 Este 0 1011.9 -1 40
2018-05-24 05:00:00 20.9 22 Nordeste 32 Este 0 1011.4 -2.2 34
2018-05-24 04:00:00 20.1 11 Nordeste 17 Norte 0 1012.7 -1.3 37
2018-05-24 03:00:00 19.9 9 Norte 17 Norte 0 1012.9 -0.7 39
2018-05-24 02:00:00 19.6 6 Norte 15 Norte 0 1013.6 0.1 58
2018-05-24 01:00:00 19.6 8 Norte 15 Norte 0 1014 1.2 64
2018-05-24 00:00:00 19.3 8 Nordeste 18 Nordeste 0 1013.6 0.8 65
2018-05-23 23:00:00 19.7 7 Nordeste 17 Nordeste 0 1013.5 0.8 61
2018-05-23 22:00:00 20.2 13 Nordeste 21 Norte 0 1012.8 0.2 58
2018-05-23 21:00:00 21 12 Este 18 Este 0 1012.8 0.1 61
2018-05-23 20:00:00 22 14 Este 21 Este 0 1012.7 -0.4 48
2018-05-23 19:00:00 22.4 12 Este 24 Este 0 1012.6 -0.6 46
2018-05-23 18:00:00 23.8 14 Este 22 Este 0 1012.7 -1 36
2018-05-23 17:00:00 25 14 Este 26 Este 0 1013.1 -0.6 39
2018-05-23 16:00:00 24.9 17 Este 26 Este 0 1013.2 -1.1 40
2018-05-23 15:00:00 25.6 17 Este 30 Este 0 1013.7 -0.5 35
2018-05-23 14:00:00 25.3 18 Este 28 Este 0 1013.7 -0.5 36
2018-05-23 13:00:00 24.9 17 Este 24 Este 0 1014.3 0.3 33
2018-05-23 12:00:00 24.6 11 Este 21 Sudeste 0 1014.2 0.4 41
2018-05-23 11:00:00 23.7 3 Este 13 Este 0 1014.2 0.7 48
2018-05-23 10:00:00 21.2 6 Este 15 Este 0 1014 0.8 67
2018-05-23 09:00:00 19.6 6 Nordeste 13 Nordeste 0 1013.8 1 78
2018-05-23 08:00:00 18.3 8 Norte 11 Norte 0 1013.5 1 86
2018-05-23 07:00:00 16.3 4 Noroeste -- -- 0 1013.2 0.7 85
2018-05-23 06:00:00 14.8 -- -- -- -- 0 1012.8 0 83
2018-05-23 05:00:00 15.3 0 Calma 8 Norte 0 1012.5 -0.3 86
2018-05-23 04:00:00 15 4 Noroeste -- -- 0 1012.5 -0.2 88
2018-05-23 03:00:00 16.9 -- -- -- -- 0 1012.8 -0.2 86
2018-05-23 02:00:00 16.5 7 Oeste 9 Oeste 0 1012.8 0.1 93
2018-05-23 01:00:00 17.4 0 Calma 5 Sur 0 1012.7 0.6 91
2018-05-23 00:00:00 18.7 3 Sudeste 8 Norte 0 1013 1.4 90
2018-05-22 23:00:00 18.5 5 Sudeste 11 Este 0 1012.7 1.6 90
2018-05-22 22:00:00 19.2 8 Este 17 Este 0 1012.1 1.4 86
2018-05-22 21:00:00 20 13 Este 22 Este 0 1011.6 1.3 82
2018-05-22 20:00:00 22.1 15 Este 21 Norte 0 1011.1 0.9 66
2018-05-22 19:00:00 23.3 10 Sur 22 Sur 0 1010.7 0.6 56
2018-05-22 18:00:00 24.5 13 Sur 22 Sur 0 1010.3 0.3 52
2018-05-22 17:00:00 25.2 16 Sur 28 Sur 0 1010.2 0.2 48
2018-05-22 16:00:00 26.3 21 Sur 32 Sur 0 1010.1 -0.1 37
2018-05-22 15:00:00 26.6 19 Sur 32 Sur 0 1010 -0.3 40
2018-05-22 14:00:00 27 16 Sur 28 Sur 0 1010 -0.2 42
2018-05-22 13:00:00 26.7 15 Sur 24 Sur 0 1010.2 0 41
2018-05-22 12:00:00 25.4 13 Sur 24 Sur 0 1010.3 0.2 43
2018-05-22 11:00:00 24.6 10 Sur 21 Sur 0 1010.2 0.5 41
2018-05-22 10:00:00 23.4 8 Sur 15 Sudoeste 0 1010.2 0.9 42
2018-05-22 09:00:00 20.4 4 Sudoeste 11 Sudoeste 0 1010.1 1.2 56
2018-05-22 08:00:00 17.9 6 Oeste 11 Noroeste 0 1009.7 0.9 64
2018-05-22 07:00:00 14.8 5 Noroeste 11 Noroeste 0 1009.3 0.2 80
2018-05-22 06:00:00 14.7 5 Noroeste 9 Noroeste 0 1008.9 -0.3 85
2018-05-22 05:00:00 14.9 4 Norte 8 Norte 0 1008.8 -0.2 84
2018-05-22 04:00:00 15.4 5 Noroeste 5 Noroeste 0 1009.1 -0.1 81
2018-05-22 03:00:00 15.6 5 Noroeste 8 Oeste 0 1009.2 -0.1 82
2018-05-22 02:00:00 16.2 3 Oeste 8 Oeste 0 1009 -0.2 83
2018-05-22 01:00:00 17.7 4 Oeste 8 Norte 0 1009.2 0.6 79
2018-05-22 00:00:00 17.7 0 Calma 8 Sudeste 0 1009.3 0.9 83
2018-05-21 23:00:00 18.4 6 Sudeste 11 Nordeste 0 1009.2 1.3 78
2018-05-21 22:00:00 19.1 6 Nordeste 15 Nordeste 0 1008.6 0.9 77
2018-05-21 21:00:00 19.8 8 Nordeste 15 Nordeste 0 1008.4 1 73
2018-05-21 20:00:00 20.8 6 Sudeste 17 Sudeste 0 1007.9 0.6 61
2018-05-21 19:00:00 21.6 10 Sur 21 Sudeste 0 1007.7 0.1 53
2018-05-21 18:00:00 22.2 14 Sur 28 Sur 0 1007.4 -0.6 51
2018-05-21 17:00:00 23.1 16 Sur 28 Sur 0 1007.3 -0.9 47
2018-05-21 16:00:00 23 17 Sur 30 Sur 0 1007.6 -1 53
2018-05-21 15:00:00 23.2 14 Sudeste 28 Sur 0 1008 -0.8 50
2018-05-21 14:00:00 23.6 12 Sudeste 33 Sudeste 0 1008.2 -0.9 52
2018-05-21 13:00:00 22.7 15 Sudeste 28 Sudeste 0 1008.6 -0.8 57
2018-05-21 12:00:00 22.1 7 Sur 17 Sudeste 0 1008.8 -0.5 60
2018-05-21 11:00:00 20.6 9 Sur 15 Sur 0 1009.1 0 65
2018-05-21 10:00:00 18.8 9 Sudoeste 18 Sudoeste 0 1009.4 0.6 73
2018-05-21 09:00:00 17.8 7 Sudoeste 13 Oeste 0 1009.3 0.4 73
2018-05-21 08:00:00 15 5 Oeste 8 Oeste 0 1009.1 0.5 84
2018-05-21 07:00:00 13.3 5 Oeste 8 Oeste 0 1008.8 -0.1 88
2018-05-21 06:00:00 13.5 5 Noroeste 11 Oeste 0 1008.9 -0.2 88
2018-05-21 05:00:00 14.1 5 Oeste 9 Oeste 0 1008.6 -0.9 88
2018-05-21 04:00:00 13.8 8 Oeste 11 Oeste 0 1008.9 -1 90
2018-05-21 03:00:00 14.5 9 Oeste 11 Oeste 0 1009.1 -1.2 89
2018-05-21 02:00:00 15.4 9 Oeste 11 Oeste 0 1009.5 -0.8 86
2018-05-21 01:00:00 16.5 5 Oeste -- -- 0 1009.9 -0.1 85
2018-05-21 00:00:00 16.9 5 Sudoeste 8 Oeste 0 1010.3 0.7 84
2018-05-20 23:00:00 17.4 4 Oeste -- -- 0 1010.3 1.1 84
2018-05-20 22:00:00 17.6 5 Sudeste 9 Sudeste 0 1010 1 82
2018-05-20 21:00:00 18.6 8 Este 15 Este 0 1009.6 0.5 76
2018-05-20 20:00:00 19.9 12 Este 18 Norte 0 1009.2 -0.2 66
2018-05-20 19:00:00 21 11 Este 24 Este 0 1009 -1.2 61
2018-05-20 18:00:00 21.6 12 Este 24 Este 0 1009.1 -1.7 59
2018-05-20 17:00:00 21.5 13 Este 26 Este 0 1009.4 -1.5 59
2018-05-20 16:00:00 21.9 15 Este 28 Este 0 1010.2 -1.1 53
2018-05-20 15:00:00 22.6 18 Este 32 Este 0 1010.8 -0.8 42
2018-05-20 14:00:00 23.4 17 Este 28 Este 0 1010.9 -0.9 39
2018-05-20 13:00:00 22.4 14 Este 24 Este 0 1011.3 -0.5 47
2018-05-20 12:00:00 21.7 13 Este 21 Este 0 1011.6 -0.1 52
2018-05-20 11:00:00 21.1 7 Este 13 Sudeste 0 1011.8 0.1 58
2018-05-20 10:00:00 19 4 Nordeste 11 Norte 0 1011.8 0.4 65
2018-05-20 09:00:00 17.6 8 Norte 13 Norte 0 1011.7 0.5 70
2018-05-20 08:00:00 14.7 0 Calma 8 Oeste 0 1011.7 0.6 79
2018-05-20 07:00:00 13.2 0 Calma 5 Noroeste 0 1011.4 0.1 82
2018-05-20 06:00:00 13.6 3 Noroeste 8 Noroeste 0 1011.2 -0.8 84
2018-05-20 05:00:00 13.5 4 Noroeste 11 Oeste 0 1011.1 -1.5 86
2018-05-20 04:00:00 14 8 Oeste 9 Oeste 0 1011.3 -1.4 88
2018-05-20 03:00:00 14.8 7 Noroeste 9 Oeste 0 1012 -0.9 87
2018-05-20 02:00:00 15 7 Oeste 9 Oeste 0 1012.6 -0.2 87
2018-05-20 01:00:00 15.7 5 Oeste -- -- 0 1012.7 0.5 85
2018-05-20 00:00:00 17.1 -- -- -- -- 0 1012.9 0.6 83
2018-05-19 23:00:00 17.2 3 Sudeste 8 Sudeste 0 1012.8 1 82
2018-05-19 22:00:00 17.6 5 Sudeste 9 Sudeste 0 1012.2 0.7 80
2018-05-19 21:00:00 18.3 8 Este 15 Este 0 1012.3 0.7 77
2018-05-19 20:00:00 19.2 10 Este 18 Este 0 1011.8 -0.2 71
2018-05-19 19:00:00 20.1 14 Este 26 Este 0 1011.5 -0.7 68
2018-05-19 18:00:00 20.7 16 Este 32 Norte 0 1011.6 -1 64
2018-05-19 17:00:00 21.4 18 Este 32 Este 0 1012 -1 58
2018-05-19 16:00:00 21.4 19 Este 30 Este 0 1012.2 -1.2 55
2018-05-19 15:00:00 22.1 18 Este 30 Este 0 1012.6 -1 49
2018-05-19 14:00:00 22 17 Este 28 Este 0 1013 -0.7 51
2018-05-19 13:00:00 22.2 16 Este 30 Este 0 1013.4 0.2 52
2018-05-19 12:00:00 21.8 17 Este 26 Este 0 1013.6 0.6 48
2018-05-19 11:00:00 21.7 12 Este 22 Este 0 1013.7 1 47
2018-05-19 10:00:00 20.8 4 Este 11 Nordeste 0 1013.2 0.8 51
2018-05-19 09:00:00 18.9 2 Este 5 Este 0 1013 1 57
2018-05-19 08:00:00 15.4 0 Calma 8 Norte 0 1012.7 0.5 74
2018-05-19 07:00:00 13.1 3 Noroeste 9 Oeste 0 1012.4 0.1 83
2018-05-19 06:00:00 13.9 8 Oeste 13 Oeste 0 1012 -0.9 83
2018-05-19 05:00:00 15 8 Noroeste 15 Noroeste 0 1012.2 -1.1 86
2018-05-19 04:00:00 15.1 10 Oeste 11 Oeste 0 1012.3 -1 89
2018-05-19 03:00:00 15.8 11 Oeste 13 Oeste 0 1012.9 -0.4 87
2018-05-19 02:00:00 16 8 Sudoeste 11 Sudoeste 0 1013.3 0 88
2018-05-19 01:00:00 17.1 7 Sudeste 17 Este 0 1013.3 0.4 85
2018-05-19 00:00:00 17.6 8 Este 11 Este 0 1013.3 0.7 81
2018-05-18 23:00:00 17.6 8 Este 11 Este 0 1013.3 1.1 81
2018-05-18 22:00:00 17.7 8 Nordeste 15 Este 0 1012.9 0.9 80
2018-05-18 21:00:00 18.6 8 Nordeste 17 Este 0 1012.6 0.7 76
2018-05-18 20:00:00 19.6 11 Este 21 Este 0 1012.2 0.2 65
2018-05-18 19:00:00 21.1 13 Este 26 Este 0 1012 -0.4 53
2018-05-18 18:00:00 21.5 15 Este 26 Norte 0 1011.9 -0.7 55
2018-05-18 17:00:00 22 17 Este 24 Este 0 1012 -1 56
2018-05-18 16:00:00 21.6 14 Este 24 Este 0 1012.4 -1 57
2018-05-18 15:00:00 21.5 17 Este 28 Este 0 1012.6 -0.6 53
2018-05-18 14:00:00 22.4 15 Este 26 Este 0 1013 -0.2 54
2018-05-18 13:00:00 23 14 Este 24 Este 0 1013.4 0.3 49
2018-05-18 12:00:00 21.9 14 Sudeste 24 Sudeste 0 1013.2 0.1 56
2018-05-18 11:00:00 21.5 10 Sudeste 18 Sudeste 0 1013.2 0.6 55
2018-05-18 10:00:00 20.3 6 Este 13 Este 0 1013.1 0.8 53
2018-05-18 09:00:00 19.6 4 Sudeste 8 Sudeste 0 1013.1 1.1 52
2018-05-18 08:00:00 15.4 5 Oeste 9 Noroeste 0 1012.6 0.5 68
2018-05-18 07:00:00 13.4 7 Sudoeste 9 Noroeste 0 1012.3 0.5 75
2018-05-18 06:00:00 14 8 Oeste 11 Oeste 0 1012 0 73
2018-05-18 05:00:00 13.5 10 Oeste 13 Oeste 0 1012.1 -0.4 75
2018-05-18 04:00:00 14.1 5 Oeste 9 Noroeste 0 1011.8 -1.4 74
2018-05-18 03:00:00 15.9 5 Oeste 5 Oeste 0 1012 -1.4 67
2018-05-18 02:00:00 15.9 7 Noroeste 13 Noroeste 0 1012.5 -0.9 69
2018-05-18 01:00:00 15 6 Noroeste 8 Noroeste 0 1013.2 0.5 75
2018-05-18 00:00:00 17.2 0 Calma 9 Nordeste 0 1013.4 1.2 74
2018-05-17 23:00:00 17.5 3 Sudeste 11 Nordeste 0 1013.4 1.6 74
2018-05-17 22:00:00 17.9 3 Este 11 Nordeste 0 1012.7 1.1 71
2018-05-17 21:00:00 18.5 7 Nordeste 17 Este 0 1012.2 0.5 67
2018-05-17 20:00:00 19.6 12 Este 18 Este 0 1011.8 0.1 64
2018-05-17 19:00:00 19.9 11 Este 22 Este 0 1011.6 -0.5 62
2018-05-17 18:00:00 20.3 16 Este 33 Este 0 1011.7 -0.5 64
2018-05-17 17:00:00 21 22 Este 35 Este 0 1011.7 -0.8 61
2018-05-17 16:00:00 21.2 20 Este 35 Este 0 1012.1 -- 59
2018-05-17 15:00:00 21.1 23 Este 39 Este 0 1012.2 -- 56
2018-05-17 14:00:00 21.7 24 Nordeste 39 Norte 0 1012.5 0.6 50
2018-05-17 13:00:00 22.1 25 Este 42 Este 0 -- -- 44
2018-05-17 12:00:00 22.2 26 Nordeste 39 Este 0 -- -- 42
2018-05-17 11:00:00 21.7 27 Este 39 Este 0 1011.9 0.6 43
2018-05-17 10:00:00 21.2 23 Nordeste 35 Nordeste 0 1011.6 0.2 44
2018-05-17 09:00:00 19.7 15 Norte 22 Norte 0 1011.6 0 48
2018-05-17 08:00:00 17.1 13 Norte 18 Norte 0 1011.3 -0.1 53
2018-05-17 07:00:00 15.4 10 Norte 13 Norte 0 1011.4 -0.4 56
2018-05-17 06:00:00 13.6 5 Oeste 15 Norte 0 1011.6 -0.8 61
2018-05-17 05:00:00 16.6 13 Norte 18 Norte 0 1011.4 -1.1 50
2018-05-17 04:00:00 16.5 12 Norte 15 Norte 0 1011.8 -1.1 51
2018-05-17 03:00:00 15.3 7 Norte 13 Norte 0 1012.4 -0.4 63
2018-05-17 02:00:00 16.7 10 Norte 15 Norte 0 1012.5 0 60
2018-05-17 01:00:00 16.6 6 Norte 13 Nordeste 0 1012.9 1 64
2018-05-17 00:00:00 16.7 7 Norte 15 Norte 0 1012.8 1 70
2018-05-16 23:00:00 16.5 7 Norte 15 Este 0 1012.5 0.9 68
2018-05-16 22:00:00 17.4 10 Nordeste 21 Este 0 1011.9 0.4 68
2018-05-16 21:00:00 18.2 13 Este 30 Este 0 1011.8 0.2 63
2018-05-16 20:00:00 19.5 21 Nordeste 32 Este 0 1011.6 0 57
2018-05-16 19:00:00 20.7 22 Nordeste 35 Este 0 1011.5 -0.6 52
2018-05-16 18:00:00 20.9 24 Este 33 Norte 0 1011.6 -1.2 42
2018-05-16 17:00:00 21.2 25 Este 33 Este 0 1011.6 -1.7 40
2018-05-16 16:00:00 21.7 23 Este 32 Este 0 1012.1 -1.4 39
2018-05-16 15:00:00 21.9 20 Este 32 Este 0 1012.8 -0.6 41
2018-05-16 14:00:00 21.6 19 Este 32 Este 0 1013.3 0 41
2018-05-16 13:00:00 21.5 18 Este 28 Este 0 1013.5 0 37
2018-05-16 12:00:00 21.5 17 Este 28 Este 0 1013.4 0.2 32
2018-05-16 11:00:00 21.1 11 Nordeste 21 Nordeste 0 1013.3 0.4 33
2018-05-16 10:00:00 19.5 10 Este 18 Este 0 1013.5 0.9 52
2018-05-16 09:00:00 18.3 6 Nordeste 13 Nordeste 0 1013.2 0.9 66
2018-05-16 08:00:00 14.9 4 Norte 9 Norte 0 1012.9 0.5 81
2018-05-16 07:00:00 12.2 4 Noroeste 5 Noroeste 0 1012.6 -0.1 87
2018-05-16 06:00:00 12.5 2 Norte 9 Noroeste 0 1012.3 -0.5 87
2018-05-16 05:00:00 -- 9 Noroeste 11 Noroeste 0 1012.4 -1 --
2018-05-16 04:00:00 12.9 5 Noroeste -- -- 0 1012.7 -1.1 88
2018-05-16 03:00:00 13.4 3 Noroeste -- -- 0 1012.8 -1.3 86
2018-05-16 02:00:00 13.6 4 Noroeste -- -- 0 1013.4 -0.2 85
2018-05-16 01:00:00 14.6 5 Noroeste 5 Noroeste 0 1013.8 0.7 81
2018-05-16 00:00:00 15.6 -- -- -- -- 0 1014.1 1.1 79
2018-05-15 23:00:00 15.8 5 Sur -- -- 0 1013.6 0.9 78
2018-05-15 22:00:00 16.7 4 Sudeste 11 Este 0 1013.1 0.6 74
2018-05-15 21:00:00 17.4 9 Este 17 Este 0 1013 0.2 71
2018-05-15 20:00:00 18.2 10 Este 24 Este 0 1012.7 -0.3 67
2018-05-15 19:00:00 19.2 13 Este 28 Sudeste 0 1012.5 -1.1 61
2018-05-15 18:00:00 19.5 17 Este 30 Este 0 1012.8 -1 61
2018-05-15 17:00:00 20.3 16 Este 30 Este 0 1013 -1.3 57
2018-05-15 16:00:00 20.5 18 Este 32 Este 0 1013.6 -1.2 52
2018-05-15 15:00:00 20.4 18 Este 35 Este 0 1013.8 -1 49
2018-05-15 14:00:00 20.8 20 Este 32 Sudeste 0 1014.3 -0.5 47
2018-05-15 13:00:00 20.5 18 Este 30 Este 0 1014.8 0.1 48
2018-05-15 12:00:00 20.1 17 Este 26 Este 0 1014.8 0.2 49
2018-05-15 11:00:00 19.9 14 Este 22 Este 0 1014.8 0.2 46
2018-05-15 10:00:00 19.1 11 Este 21 Este 0 1014.7 0.6 49
2018-05-15 09:00:00 17.6 5 Nordeste 13 Norte 0 1014.6 1 71
2018-05-15 08:00:00 15.1 9 Noroeste 15 Norte 0 1014.6 1 80
2018-05-15 07:00:00 14.7 10 Norte 18 Norte 0 1014.1 0.6 82
2018-05-15 06:00:00 14.7 11 Norte 21 Norte 0 1013.6 0.2 79
2018-05-15 05:00:00 14.7 11 Norte 15 Norte 0 1013.6 -0.1 76
2018-05-15 04:00:00 14.4 12 Norte 15 Norte 0 1013.5 -0.2 75
2018-05-15 03:00:00 13.4 4 Noroeste 9 Norte 0 1013.4 -0.6 78
2018-05-15 02:00:00 14.2 5 Noroeste 9 Norte 0 1013.7 -0.4 77
2018-05-15 01:00:00 14.1 4 Noroeste 9 Norte 0 1013.7 0.2 80
2018-05-15 00:00:00 15.2 6 Norte 9 Nordeste 0 1014 1 78
2018-05-14 23:00:00 16.5 7 Norte 11 Nordeste 0 1014.1 1.2 75
2018-05-14 22:00:00 16.6 5 Este 11 Este 0 1013.5 0.7 74
2018-05-14 21:00:00 17.4 10 Este 15 Este 0 1013 0.2 73
2018-05-14 20:00:00 18.2 12 Este 26 Este 0 1012.9 -0.2 69
2018-05-14 19:00:00 18.7 12 Este 26 Este 0 1012.8 -0.1 63
2018-05-14 18:00:00 19.4 17 Este 32 Norte 0 1012.8 0.3 62
2018-05-14 17:00:00 18.8 21 Este 35 Este 0 1013.1 0.6 66
2018-05-14 16:00:00 19.4 24 Este 33 Norte 0 1012.9 -0.2 61
2018-05-14 15:00:00 22.2 24 Este 35 Este 0 1012.5 -1.1 47
2018-05-14 14:00:00 24.4 9 Este 37 Noroeste 0 1012.5 -1.5 23
2018-05-14 13:00:00 22.7 21 Oeste 37 Oeste 0 1013.1 -1.2 24
2018-05-14 12:00:00 22.1 19 Oeste 42 Noroeste 0 1013.6 -0.7 24
2018-05-14 11:00:00 20.9 22 Oeste 32 Oeste 0 1014 -0.4 27
2018-05-14 10:00:00 19.8 23 Noroeste 35 Noroeste 0 1014.3 0.4 27
2018-05-14 09:00:00 18.1 21 Noroeste 32 Noroeste 0 1014.3 0.5 30
2018-05-14 08:00:00 15.3 6 Noroeste 22 Noroeste 0 1014.4 0.6 37
2018-05-14 07:00:00 13.4 14 Oeste 18 Oeste 0 1013.9 -0.3 48
2018-05-14 06:00:00 12.6 13 Oeste 18 Oeste 0 1013.8 -0.8 59
2018-05-14 05:00:00 13.2 14 Oeste 21 Oeste 0 1013.8 -1.5 74
2018-05-14 04:00:00 13.8 16 Oeste 22 Oeste 0 1014.2 -1.5 79
2018-05-14 03:00:00 13.2 5 Noroeste 13 Oeste 0 1014.6 -1.5 83
2018-05-14 02:00:00 14 8 Noroeste 11 Noroeste 0 1015.3 -0.9 80
2018-05-14 01:00:00 14.5 8 Norte 13 Nordeste 0 1015.7 -0.1 80
2018-05-11 20:00:00 20.2 9 Sur 18 Sur 0 1012.3 -0.7 71
2018-05-11 19:00:00 21.7 11 Sur 21 Sur 0 1012.5 -0.9 64
2018-05-11 18:00:00 22.6 12 Sur 22 Sur 0 1012.7 -1.2 60
2018-05-11 17:00:00 23.8 11 Sur 21 Sudoeste 0 1013 -1.6 56
2018-05-11 16:00:00 24 11 Sur 26 Sudeste 0 1013.4 -1.8 53
2018-05-11 15:00:00 23.4 15 Este 28 Sudeste 0 1013.9 -2 54
2018-05-11 14:00:00 23.4 13 Sudeste 28 Sudeste 0 1014.6 -1.3 54
2018-05-11 13:00:00 22.5 5 Este 15 Sudeste 0 1015.2 -0.9 55
2018-05-11 12:00:00 21.6 6 Sudeste 18 Este 0 1015.9 0.4 59
2018-05-11 11:00:00 20 6 Nordeste 18 Este 0 1015.9 0.5 63
2018-05-11 10:00:00 19 8 Norte 15 Norte 0 1016.1 1.4 70
2018-05-11 09:00:00 18.1 10 Norte 15 Norte 0 1015.5 1.3 79
2018-05-11 08:00:00 17 6 Norte 13 Norte 0 1015.4 1.4 83
2018-05-11 07:00:00 16.9 8 Norte 13 Nordeste 0 1014.7 0.3 84
2018-05-11 06:00:00 16.5 6 Norte 11 Norte 0 1014.2 0 86
2018-05-11 05:00:00 16.5 7 Norte 11 Norte 0 1014 -0.7 87
2018-05-11 04:00:00 16 7 Norte 11 Norte 0 1014.4 -0.3 85
2018-05-11 03:00:00 16.2 8 Norte 11 Norte 0 1014.2 -0.3 85
2018-05-11 02:00:00 16.2 7 Norte 9 Norte 0 1014.7 0.7 86
2018-05-11 01:00:00 15.7 5 Noroeste 11 Este 0 1014.7 0.9 86
2018-05-11 00:00:00 16.9 0 Calma 9 Sudeste 0 1014.5 0.9 81
2018-05-10 23:00:00 17 4 Nordeste 11 Nordeste 0 1014 0.7 82
2018-05-10 22:00:00 17.6 5 Nordeste 15 Este 0 1013.8 1 81
2018-05-10 21:00:00 18 10 Este 18 Nordeste 0 1013.6 1 81
2018-05-10 20:00:00 18.5 11 Nordeste 24 Este 0 1013.3 0.9 80
2018-05-10 19:00:00 19.2 12 Nordeste 26 Este 0 1012.8 0.6 79
2018-05-10 18:00:00 19.6 14 Este 30 Este 0 1012.6 1 80
2018-05-10 17:00:00 19 22 Este 30 Este 0 1012.4 0.7 79
2018-05-10 16:00:00 20.3 24 Este 41 Este 0 1012.2 1 68
2018-05-10 15:00:00 20.3 22 Este 30 Este 0.4 1011.6 0.6 63
2018-05-10 14:00:00 18 18 Este 33 Este 5.8 1011.7 1.3 83
2018-05-10 13:00:00 21 17 Nordeste 35 Este 0 1011.2 1.2 69
2018-05-10 12:00:00 21.9 21 Este 30 Este 0 1011 1.7 68
2018-05-10 11:00:00 20.9 18 Este 26 Este 0 1010.4 2 75
2018-05-10 10:00:00 19.6 14 Nordeste 21 Nordeste 0 1010 2.4 89
2018-05-10 09:00:00 18.2 8 Norte 22 Norte 0.7 1009.3 2.6 95
2018-05-10 08:00:00 17.7 10 Norte 13 Norte 0 1008.4 2.3 93
2018-05-10 07:00:00 16.2 5 Oeste 8 Oeste 0 1007.6 1.4 94
2018-05-10 06:00:00 16.2 4 Este 9 Este 0 1006.7 0.5 93
2018-05-10 05:00:00 17.1 3 Nordeste 13 Oeste 0 1006.1 0.1 92
2018-05-10 04:00:00 16.7 6 Oeste 9 Oeste 0 1006.2 0.2 93
2018-05-10 03:00:00 17.3 4 Sudeste 11 Nordeste 0 1006.2 0.1 92
2018-05-10 02:00:00 17.7 5 Nordeste 24 Norte 0 1006 0.4 90
2018-05-10 01:00:00 18.7 9 Norte 13 Norte 0 1006 0.6 75
2018-05-10 00:00:00 19.5 3 Sudeste 15 Oeste 0 1006.1 1.2 71
2018-05-09 23:00:00 20.6 13 Oeste 22 Oeste 0 1005.6 0.5 67
2018-05-09 22:00:00 21.6 6 Oeste 15 Oeste 0 1005.4 0.8 62
2018-05-09 21:00:00 19.6 4 Sudeste 9 Norte 0 1004.9 -0.5 81
2018-05-09 20:00:00 19.8 5 Sudeste 22 Nordeste 0 1005.1 -0.3 80
2018-05-09 19:00:00 19.6 16 Este 28 Nordeste 0 1004.6 -1.3 82
2018-05-09 18:00:00 22.5 14 Este 24 Este 0 1005.4 -0.8 63
2018-05-09 17:00:00 24.3 11 Este 22 Este 0 1005.4 -0.6 53
2018-05-09 16:00:00 22.4 8 Sudeste 22 Sudeste 0 1005.9 -0.8 61
2018-05-09 15:00:00 23.7 13 Sur 26 Sudoeste 0 1006.2 -1.2 56
2018-05-09 14:00:00 24.7 13 Sur 26 Este 0 1006 -1.4 55
2018-05-09 13:00:00 23.6 17 Este 26 Este 0 1006.7 -0.6 62
2018-05-09 12:00:00 22.4 12 Este 22 Nordeste 0 1007.4 0.4 68
2018-05-09 11:00:00 20.9 14 Este 22 Este 0 1007.4 0.6 77
2018-05-09 10:00:00 20.1 10 Este 13 Este 0 1007.3 1.1 78
2018-05-09 09:00:00 18.3 5 Sudeste 9 Sudeste 0 1007 0.7 87
2018-05-09 08:00:00 15.7 4 Sudoeste 8 Noroeste 0 1006.8 0 97
2018-05-09 07:00:00 14.5 4 Oeste 8 Noroeste 0 1006.2 -1.1 97
2018-05-09 06:00:00 14.9 5 Noroeste 9 Noroeste 0 1006.3 -1.3 97
2018-05-09 05:00:00 15.7 3 Norte 9 Norte 0 1006.8 -1 96
2018-05-09 04:00:00 15.7 4 Noroeste 5 Norte 0 1007.3 -0.4 96
2018-05-09 03:00:00 16 5 Oeste -- -- 0 1007.6 -0.2 95
2018-05-09 02:00:00 16.7 3 Sur 8 Sur 0 1007.8 -0.1 93
2018-05-09 01:00:00 17.6 3 Sudoeste 5 Oeste 0 1007.7 0 90
2018-05-09 00:00:00 17.7 5 Norte 11 Norte 0 1007.8 0.4 88
2018-05-08 23:00:00 17.7 3 Sudeste 8 Nordeste 0 1007.9 0.9 88
2018-05-08 22:00:00 17.5 3 Sur 5 Sur 0 1007.7 0.9 90
2018-05-08 21:00:00 17.6 3 Sur 13 Sudoeste 0 1007.4 -0.5 90
2018-05-08 20:00:00 17.8 9 Sudoeste 15 Sur 0.3 1007 -1.1 91
2018-05-08 19:00:00 18.5 10 Sur 15 Sudeste 0.5 1006.8 -0.9 85
2018-05-08 18:00:00 18.1 6 Sudeste 21 Este 0 1007.9 0.1 78
2018-05-08 17:00:00 20.7 9 Este 26 Norte 0 1008.1 0.3 61
2018-05-08 16:00:00 22.9 11 Sudeste 26 Sudeste 0 1007.7 -0.4 58
2018-05-08 15:00:00 22.4 16 Sudeste 30 Sudeste 0 1007.8 -0.7 59
2018-05-08 14:00:00 23.4 21 Este 30 Este 0 1007.8 -1.1 56
2018-05-08 13:00:00 23.2 13 Sur 24 Sur 0 1008.1 -1.2 55
2018-05-08 12:00:00 22.4 6 Sur 15 Este 0 1008.5 -0.9 56
2018-05-08 11:00:00 20.7 8 Sur 18 Sur 0 1008.9 -0.1 62
2018-05-08 10:00:00 18.8 8 Sudoeste 21 Sur 0 1009.3 0.7 71
2018-05-08 09:00:00 17.1 11 Sudoeste 17 Sur 0 1009.4 1.1 80
2018-05-08 08:00:00 14.5 9 Sudoeste 13 Sudoeste 0 1009 -0.1 91
2018-05-08 07:00:00 13.5 7 Sur 13 Sudoeste 0 1008.6 -1.1 90
2018-05-08 06:00:00 14.6 6 Noroeste 15 Noroeste 0 1008.3 -1.8 87
2018-05-08 05:00:00 15 8 Oeste 11 Noroeste 0 1009.1 -1.8 86
2018-05-08 04:00:00 16.5 5 Sudoeste 13 Oeste 0 1009.7 -1.4 81
2018-05-08 03:00:00 16.2 5 Sudoeste 8 Sudoeste 0 1010.1 -1 85
2018-05-08 02:00:00 15.5 5 Oeste -- -- 0 1010.9 0.1 87
2018-05-08 01:00:00 15.2 -- -- -- -- 0 1011.1 0.6 88
2018-05-08 00:00:00 15.9 4 Sur 8 Sur 0 1011.1 1 85
2018-05-07 23:00:00 16.6 4 Sudoeste 9 Este 0 1010.8 1.1 84
2018-05-07 22:00:00 16.7 6 Este 13 Este 0 1010.5 1 84
2018-05-07 21:00:00 17.1 8 Este 15 Nordeste 0 1010.1 0.5 82
2018-05-07 20:00:00 18.2 10 Este 17 Este 0 1009.7 -0.2 77
2018-05-07 19:00:00 19.4 13 Este 22 Este 0 1009.5 -1.3 72
2018-05-07 18:00:00 20.1 16 Este 28 Este 0 1009.6 -2.1 68
2018-05-07 17:00:00 20.6 15 Este 26 Este 0 1009.9 -2.5 65
2018-05-07 16:00:00 21 15 Este 26 Este 0 1010.8 -2.3 63
2018-05-07 15:00:00 20.2 14 Este 28 Norte 0 1011.7 -1.2 65
2018-05-07 14:00:00 20.1 19 Este 33 Este 0 1012.4 -0.4 66
2018-05-07 13:00:00 19.6 22 Este 30 Este 0 1013.1 0.6 72
2018-05-07 12:00:00 21.2 16 Este 28 Este 0 1012.9 0.7 59
2018-05-07 11:00:00 21.7 13 Sudeste 22 Sudeste 0 1012.8 0.9 48
2018-05-07 10:00:00 20.8 6 Sur 13 Sur 0 1012.5 0.8 53
2018-05-07 09:00:00 18.2 8 Oeste 13 Oeste 0 1012.2 0.4 61
2018-05-07 08:00:00 14.5 8 Noroeste 13 Oeste 0 1011.9 -0.4 76
2018-05-07 07:00:00 12.8 9 Oeste 11 Oeste 0 1011.7 -1.1 83
2018-05-07 06:00:00 13 8 Noroeste 9 Noroeste 0 1011.8 -1.3 82
2018-05-07 05:00:00 13.5 6 Noroeste 11 Norte 0 1012.3 -0.9 83
2018-05-07 04:00:00 13.5 4 Oeste 9 Oeste 0 1012.8 -0.7 83
2018-05-07 03:00:00 14.6 5 Noroeste 9 Oeste 0 1013.1 -0.4 81
2018-05-07 02:00:00 14.4 5 Norte 13 Norte 0 1013.2 -0.2 85
2018-05-07 01:00:00 14.9 9 Noroeste 11 Noroeste 0 1013.5 0.1 83
2018-05-07 00:00:00 16.5 3 Norte 9 Norte 0 1013.5 0.2 80
2018-05-06 23:00:00 17 4 Norte 15 Norte 0 1013.4 0.7 80
2018-05-06 22:00:00 17.1 7 Nordeste 13 Sudeste 0 1013.4 1 79
2018-05-06 21:00:00 17.7 9 Este 18 Este 0 1013.3 0.5 75
2018-05-06 20:00:00 19 13 Este 22 Este 0 1012.7 -0.2 66
2018-05-06 19:00:00 20.3 14 Este 26 Este 0 1012.4 -1.1 59
2018-05-06 18:00:00 21.1 17 Este 24 Este 0 1012.8 -1.2 55
2018-05-06 17:00:00 20.8 15 Este 26 Este 0 1012.9 -0.9 57
2018-05-06 16:00:00 21.1 13 Este 24 Este 0 1013.5 -0.5 57
2018-05-06 15:00:00 19.7 13 Este 26 Este 0 1014 -0.1 64
2018-05-06 14:00:00 21.9 15 Este 30 Este 0 1013.8 -0.3 49
2018-05-06 13:00:00 23.1 14 Este 24 Sur 0 1014 0.3 44
2018-05-06 12:00:00 22.9 11 Sudeste 21 Sudeste 0 1014.1 0.4 44
2018-05-06 11:00:00 21.9 6 Este 17 Sudeste 0 1014.1 0.5 49
2018-05-06 10:00:00 20.6 4 Este 9 Nordeste 0 1013.7 0.2 52
2018-05-06 09:00:00 18.9 3 Nordeste 5 Este 0 1013.7 0.3 58
2018-05-06 08:00:00 14.7 3 Norte 8 Noroeste 0 1013.6 0.2 74
2018-05-06 07:00:00 13.3 7 Oeste 9 Sudoeste 0 1013.5 0 79
2018-05-06 06:00:00 13.3 7 Oeste 13 Oeste 0 1013.4 -0.4 80
2018-05-06 05:00:00 13.8 11 Oeste 13 Oeste 0 1013.4 -0.9 78
2018-05-06 04:00:00 14.1 9 Noroeste 11 Noroeste 0 1013.5 -1.1 80
2018-05-06 03:00:00 13.7 2 Norte -- -- 0 1013.8 -0.8 81
2018-05-06 02:00:00 14.9 4 Noroeste 8 Nordeste 0 1014.3 0.1 78
2018-05-06 01:00:00 14.7 5 Nordeste 9 Nordeste 0 1014.6 1 80
2018-05-06 00:00:00 15.6 4 Norte 8 Norte 0 1014.6 1.3 80
2018-05-05 23:00:00 15.8 4 Sudoeste 5 Sudoeste 0 1014.2 1 79
2018-05-05 22:00:00 16.9 4 Sudeste 11 Este 0 1013.6 0.8 74
2018-05-05 21:00:00 17.6 6 Este 15 Este 0 1013.3 0.8 69
2018-05-05 20:00:00 18.5 11 Este 22 Este 0 1013.2 1.2 63
2018-05-05 19:00:00 20.5 14 Este 26 Este 0 1012.8 1.1 53
2018-05-05 18:00:00 21.5 15 Este 26 Sudeste 0 1012.5 0.8 47
2018-05-05 17:00:00 22 14 Sudeste 26 Sudeste 0 1012 0.2 46
2018-05-05 16:00:00 21.9 16 Sur 26 Sur 0 1011.7 -0.4 51
2018-05-05 15:00:00 22.6 14 Sur 28 Sur 0 1011.7 -0.4 45
2018-05-05 14:00:00 22.8 15 Sur 26 Sur 0 1011.8 0 45
2018-05-05 13:00:00 22.1 6 Sur 17 Sur 0 1012.1 0.4 44
2018-05-05 12:00:00 21.4 15 Nordeste 22 Este 0 1012.1 0.5 51
2018-05-05 11:00:00 21.8 6 Oeste 13 Oeste 0 1011.8 0.5 41
2018-05-05 10:00:00 19.8 6 Sudoeste 11 Sudoeste 0 1011.7 0.6 53
2018-05-05 09:00:00 16.5 3 Sudoeste 17 Oeste 0 1011.6 0.3 68
2018-05-05 08:00:00 15 12 Oeste 17 Noroeste 0 1011.3 0 74
2018-05-05 07:00:00 13 5 Oeste 9 Oeste 0 1011.1 -0.5 87
2018-05-05 06:00:00 14.4 -- -- -- -- 0 1011.3 -0.9 83
2018-05-05 05:00:00 15.3 9 Oeste 11 Oeste 0 1011.3 -1.3 81
2018-05-05 04:00:00 15.4 9 Oeste 13 Oeste 0 1011.6 -1.1 79
2018-05-05 03:00:00 15.4 6 Oeste 9 Oeste 0 1012.2 -0.5 81
2018-05-05 02:00:00 15.6 4 Sudoeste 8 Sudoeste 0 1012.6 0.1 80
2018-05-05 01:00:00 15.9 4 Oeste 5 Noroeste 0 1012.7 0.9 66
2018-05-05 00:00:00 15.7 4 Sudoeste -- -- 0 1012.7 1.5 79
2018-05-04 23:00:00 15.7 7 Este 15 Este 0.1 1012.5 2 79
2018-05-04 22:00:00 16.2 10 Nordeste 18 Este 0 1011.8 1.8 71
2018-05-04 21:00:00 16.4 13 Nordeste 21 Nordeste 0 1011.2 1.5 71
2018-05-04 20:00:00 17 13 Este 28 Este 0 1010.5 0.9 68
2018-05-04 19:00:00 17.8 19 Nordeste 28 Este 0 1010 0.5 64
2018-05-04 18:00:00 18.9 19 Este 32 Este 0 1009.7 0 54
2018-05-04 17:00:00 18.8 21 Este 35 Este 0 1009.6 0.1 59
2018-05-04 16:00:00 19.6 19 Este 28 Este 0 1009.5 0.2 53
2018-05-04 15:00:00 18.9 18 Este 33 Este 0 1009.7 0.6 54
2018-05-04 14:00:00 19.5 21 Este 35 Sudeste 0 1009.5 0.9 49
2018-05-04 13:00:00 20.1 22 Este 33 Este 0 1009.3 0.8 49
2018-05-04 12:00:00 19.8 17 Este 28 Este 0 1009.1 0.9 54
2018-05-04 11:00:00 19.6 13 Este 22 Este 0 1008.6 0.8 59
2018-05-04 10:00:00 19.3 5 Sur 15 Oeste 0 1008.5 1.2 52
2018-05-04 09:00:00 17.2 12 Noroeste 21 Este 0 1008.2 1.2 64
2018-05-04 08:00:00 15.4 11 Este 26 Este 0 1007.8 0.9 77
2018-05-04 07:00:00 15.1 15 Este 22 Este 0 1007.3 0.5 87
2018-05-04 06:00:00 15.6 7 Nordeste 13 Este 0 1007 0 92
2018-05-04 05:00:00 15.7 10 Nordeste 18 Nordeste 0 1006.9 -0.5 92
2018-05-04 04:00:00 15.6 11 Nordeste 18 Nordeste 0 1006.8 -0.7 90
2018-05-04 03:00:00 15.2 11 Nordeste 18 Nordeste 0 1007 -0.5 83
2018-05-04 02:00:00 15.7 11 Nordeste 18 Este 0 1007.4 -0.1 83
2018-05-04 01:00:00 15.3 13 Nordeste 17 Este 0 1007.5 0.3 80
2018-05-04 00:00:00 15.7 8 Nordeste 17 Este 0 1007.5 0.6 83
2018-05-03 23:00:00 16.2 13 Este 18 Este 0 1007.5 1.3 77
2018-05-03 22:00:00 17.1 14 Nordeste 22 Este 0 1007.2 1 67
2018-05-03 21:00:00 18.1 14 Este 21 Nordeste 0 1006.9 0.4 54
2018-05-03 20:00:00 18.6 15 Nordeste 22 Este 0 1006.2 -0.6 60
2018-05-03 19:00:00 19.9 14 Este 28 Este 0 1006.2 -0.9 53
2018-05-03 18:00:00 19.4 14 Este 28 Este 0 1006.5 -0.4 56
2018-05-03 17:00:00 20.3 13 Este 30 Este 0 1006.8 0.2 53
2018-05-03 16:00:00 22.4 22 Este 35 Sudeste 0 1007.1 -0.1 33
2018-05-03 15:00:00 22.6 25 Este 41 Este 0 1006.9 -0.4 32
2018-05-03 14:00:00 24 25 Sudeste 35 Sudeste 0 1006.6 -0.7 28
2018-05-03 13:00:00 24.6 19 Este 30 Sudeste 0 1007.2 -0.3 28
2018-05-03 12:00:00 23.9 9 Sur 30 Oeste 0 1007.3 -0.2 28
2018-05-03 11:00:00 22.3 18 Noroeste 35 Noroeste 0 1007.3 -0.4 31
2018-05-03 10:00:00 20 23 Noroeste 35 Noroeste 0 1007.5 -0.1 34
2018-05-03 09:00:00 17.8 25 Noroeste 35 Oeste 0 1007.5 0.1 37
2018-05-03 08:00:00 17.4 21 Oeste 30 Oeste 0 1007.7 0 36
2018-05-03 07:00:00 17.2 12 Oeste 37 Noroeste 0 1007.6 -0.5 35
2018-05-03 06:00:00 17.5 26 Noroeste 45 Noroeste 0 1007.4 -0.9 33
2018-05-03 05:00:00 17.7 32 Noroeste 50 Noroeste 0 1007.7 -1.2 30
2018-05-03 04:00:00 18.1 34 Noroeste 48 Noroeste 0 1008.1 -1 29
2018-05-03 03:00:00 18.5 31 Noroeste 45 Noroeste 0 1008.3 -0.9 29
2018-05-03 02:00:00 19 26 Noroeste 45 Noroeste 0 1008.9 -0.1 28
2018-05-03 01:00:00 19.1 22 Noroeste 37 Noroeste 0 1009.1 0.5 29
2018-05-03 00:00:00 15.8 11 Sudoeste 13 Sudoeste 0 1009.2 1.3 46
2018-05-02 23:00:00 16.6 11 Sudoeste 22 Sudoeste 0 1009 1.3 41
2018-05-02 22:00:00 18.4 13 Sudoeste 26 Sudoeste 0 1008.6 1 33
2018-05-02 21:00:00 21.7 17 Oeste 39 Noroeste 0 1007.9 0.2 23
2018-05-02 20:00:00 22.8 19 Noroeste 35 Noroeste 0 1007.7 -0.4 21
2018-05-02 19:00:00 23.4 21 Noroeste 42 Noroeste 0 1007.6 -0.8 19
2018-05-02 18:00:00 24.4 21 Noroeste 45 Noroeste 0 1007.7 -1.5 17
2018-05-02 17:00:00 23.4 22 Noroeste 41 Noroeste 0 1008.1 -1.7 19
2018-05-02 16:00:00 23.6 20 Noroeste 45 Noroeste 0 1008.4 -1.9 19
2018-05-02 15:00:00 24 19 Oeste 45 Oeste 0 1009.2 -1.5 18
2018-05-02 14:00:00 22.6 27 Noroeste 42 Norte 0 1009.8 -1.1 19
2018-05-02 13:00:00 21.9 18 Noroeste 39 Noroeste 0 1010.3 -0.7 23
2018-05-02 12:00:00 20.7 24 Noroeste 42 Noroeste 0 1010.7 -0.2 27
2018-05-02 11:00:00 18.8 29 Noroeste 42 Noroeste 0 1010.9 0 34
2018-05-02 10:00:00 16.9 23 Oeste 35 Oeste 0 1011 0.3 38
2018-05-02 09:00:00 15.2 17 Noroeste 26 Noroeste 0 1010.9 0.5 44
2018-05-02 08:00:00 12.5 15 Oeste 28 Oeste 0 1010.9 0.3 55
2018-05-02 07:00:00 10.1 13 Oeste 21 Oeste 0 1010.7 -0.2 67
2018-05-02 06:00:00 11.5 18 Oeste 32 Oeste 0 1010.4 -0.8 62
2018-05-02 05:00:00 10 10 Oeste 15 Oeste 0 1010.6 -0.8 73
2018-05-02 04:00:00 9.8 10 Noroeste 15 Noroeste 0 1010.9 -0.2 76
2018-05-02 03:00:00 10.3 10 Oeste 13 Noroeste 0 1011.2 -0.2 79
2018-05-02 02:00:00 10.6 -- -- -- -- 0 1011.4 0.4 81
2018-05-02 01:00:00 11.3 6 Oeste 9 Oeste 0 1011.1 0.3 77
2018-05-02 00:00:00 12.2 6 Oeste 9 Oeste 0 1011.4 0.7 73
2018-05-01 23:00:00 13.8 5 Este 9 Sudoeste 0 1011 1.6 65
2018-05-01 22:00:00 14.4 8 Sudoeste 9 Sudoeste 0 1010.8 0.6 62
2018-05-01 21:00:00 14.8 7 Sudeste 24 Sur 0 1010.7 0.7 61
2018-05-01 20:00:00 15.4 14 Sur 24 Sur 0 1009.4 0 58
2018-05-01 19:00:00 15.8 12 Sudeste 28 Sudeste 0 1010.2 0.8 54
2018-05-01 18:00:00 16 14 Este 30 Sudeste 0 1010 0.5 53
2018-05-01 17:00:00 16.9 19 Este 33 Este 0 1009.4 -0.4 51
2018-05-01 16:00:00 16.8 21 Este 33 Este 0 1009.4 -0.7 52
2018-05-01 15:00:00 17.6 23 Este 32 Este 0 1009.5 -0.9 46
2018-05-01 14:00:00 18.2 20 Sudeste 33 Sudeste 0 1009.8 -0.8 41
2018-05-01 13:00:00 17.6 18 Sudeste 28 Este 0 1010.1 -0.1 41
2018-05-01 12:00:00 17 15 Este 24 Este 0 1010.4 0.1 38
2018-05-01 11:00:00 17 13 Nordeste 24 Este 0 1010.6 0.5 37
2018-05-01 10:00:00 14.8 12 Noroeste 24 Oeste 0 1010.2 0.3 42
2018-05-01 09:00:00 12.9 18 Noroeste 28 Noroeste 0 1010.3 0.6 50
2018-05-01 08:00:00 11.2 14 Norte 24 Norte 0 1010.1 0.3 56
2018-05-01 07:00:00 10.7 10 Noroeste 26 Norte 0 1009.9 -0.1 58
2018-05-01 06:00:00 10.6 12 Noroeste 30 Oeste 0 1009.7 -0.6 59
2018-05-01 05:00:00 10.7 17 Oeste 24 Oeste 0 1009.8 -1 63
2018-05-01 04:00:00 11.7 12 Oeste 24 Oeste 0 1010 -1 64
2018-05-01 03:00:00 12.7 10 Oeste 18 Oeste 0 1010.3 -0.9 67
2018-05-01 02:00:00 12.8 12 Sudoeste 17 Oeste 0 1010.8 -0.1 87
2018-05-01 01:00:00 13.2 5 Sudoeste 8 Sudoeste 0 1011 0.1 90
2018-05-01 00:00:00 13.6 4 Sur 5 Sudoeste 0 1011.2 1.1 86
2018-04-30 23:00:00 13.5 4 Sudeste 13 Sudeste 0 1010.9 1.4 86
2018-04-30 22:00:00 13.9 7 Oeste 17 Norte 0 1010.9 1.2 88
2018-04-30 21:00:00 14.1 10 Noroeste 18 Norte 0 1010.1 0.5 82
2018-04-30 20:00:00 14.1 6 Noroeste 15 Oeste 0.4 1009.5 0.1 83
2018-04-30 19:00:00 15.3 3 Sur 21 Este 0 1009.7 0.1 77
2018-04-30 18:00:00 16.4 15 Sudeste 30 Sudeste 0 1009.6 -0.5 66
2018-04-30 17:00:00 17.2 20 Sudeste 35 Este 0 1009.4 -0.9 60
2018-04-30 16:00:00 18.7 24 Sudeste 45 Sudeste 0 1009.6 -1.3 50
2018-04-30 15:00:00 19.7 27 Sudeste 41 Sudeste 0 1010.1 -0.9 43
2018-04-30 14:00:00 19.9 26 Sudeste 41 Este 0 1010.3 -1.1 33
2018-04-30 13:00:00 20.1 19 Este 30 Sudeste 0 1010.9 -0.7 30
2018-04-30 12:00:00 19.2 6 Sudeste 28 Noroeste 0 1011 -0.8 31
2018-04-30 11:00:00 18.4 14 Noroeste 24 Oeste 0 1011.4 -0.1 33
2018-04-30 10:00:00 16.9 16 Oeste 30 Noroeste 0 1011.6 0.4 35
2018-04-30 09:00:00 15.3 9 Oeste 18 Norte 0 1011.8 1 42
2018-04-30 08:00:00 13.1 5 Oeste 15 Noroeste 0 1011.5 0.4 51
2018-04-30 07:00:00 13.3 11 Noroeste 24 Noroeste 0 1011.2 0.1 49
2018-04-30 06:00:00 13.4 14 Noroeste 22 Norte 0 1010.8 -0.9 51
2018-04-30 05:00:00 13.9 9 Noroeste 18 Noroeste 0 1011.1 -0.9 49
2018-04-30 04:00:00 13.6 15 Noroeste 24 Noroeste 0 1011.1 -0.7 54
2018-04-30 03:00:00 13.4 13 Noroeste 18 Noroeste 0 1011.7 -0.1 47
2018-04-30 02:00:00 12.6 11 Sudoeste 17 Sudoeste 0 1012 0.7 50
2018-04-30 01:00:00 12.8 13 Oeste 15 Oeste 0 1011.8 1.2 50
2018-04-30 00:00:00 14.4 10 Oeste 18 Oeste 0 1011.8 2.2 42
2018-04-29 23:00:00 15.9 14 Oeste 30 Noroeste 0 1011.3 2.8 37
2018-04-29 22:00:00 17.2 20 Noroeste 32 Noroeste 0 1010.6 2.8 32
2018-04-29 21:00:00 18.7 22 Noroeste 39 Oeste 0 1009.6 2.2 28
2018-04-29 20:00:00 20.5 28 Oeste 48 Oeste 0 1008.5 1.3 22
2018-04-29 19:00:00 21.8 27 Sudoeste 46 Oeste 0 1007.8 0.7 20
2018-04-29 18:00:00 22.2 34 Oeste 50 Oeste 0 1007.4 -0.3 18
2018-04-29 17:00:00 22.3 34 Oeste 55 Oeste 0 1007.2 -0.3 19
2018-04-29 16:00:00 22.2 34 Oeste 59 Oeste 0 1007.1 -0.2 19
2018-04-29 15:00:00 22.1 31 Oeste 59 Oeste 0 1007.7 0.4 20
2018-04-29 14:00:00 21 29 Oeste 54 Oeste 0 1007.5 0.7 21
2018-04-29 13:00:00 20.5 32 Oeste 50 Oeste 0 1007.3 1.1 22
2018-04-29 12:00:00 19.7 32 Oeste 52 Sudoeste 0 1007.3 1.6 26
2018-04-29 11:00:00 18.4 25 Sudoeste 48 Oeste 0 1006.8 1.8 31
2018-04-29 10:00:00 17.2 21 Sudoeste 41 Oeste 0 1006.2 2.5 41
2018-04-29 09:00:00 15.9 10 Oeste 26 Oeste 0 1005.7 2.5 51
2018-04-29 08:00:00 12 12 Oeste 18 Oeste 0 1005 2.2 73
2018-04-29 07:00:00 10.7 10 Sudoeste 15 Oeste 0 1003.7 1 90
2018-04-29 06:00:00 12.9 14 Oeste 24 Oeste 0 1003.2 0 91
2018-04-29 05:00:00 13.3 9 Sudoeste 15 Oeste 0 1002.8 -0.6 93
2018-04-29 04:00:00 11.4 7 Sudoeste 11 Sudoeste 0 1002.7 -1.1 96
2018-04-29 03:00:00 13 8 Oeste 15 Noroeste 0 1003.2 -0.9 95
2018-04-29 02:00:00 13.6 4 Oeste 13 Norte 0 1003.4 -0.5 94
2018-04-29 01:00:00 14.6 11 Norte 21 Norte 0 1003.8 0.3 94
2018-04-29 00:00:00 14.8 11 Norte 17 Norte 0 1004.1 0.5 95
2018-04-28 23:00:00 14.7 11 Nordeste 18 Nordeste 0 1003.9 0.1 95
2018-04-28 22:00:00 15.1 13 Nordeste 18 Nordeste 0 1003.5 -0.6 93
2018-04-28 21:00:00 15.8 10 Nordeste 18 Este 0 1003.6 -1 91
2018-04-28 20:00:00 17.1 12 Este 17 Norte 0 1003.8 -1.5 85
2018-04-28 19:00:00 18.1 12 Este 18 Este 0 1004.1 -2 80
2018-04-28 18:00:00 18.6 14 Nordeste 22 Este 0 1004.6 -2.2 78
2018-04-28 17:00:00 18.8 16 Este 26 Este 0 1005.3 -2 77
2018-04-28 16:00:00 18.4 13 Este 26 Este 0 1006.1 -1.6 79
2018-04-28 15:00:00 18.1 14 Este 28 Norte 0 1006.8 -1.3 80
2018-04-28 14:00:00 17.9 16 Este 28 Este 0 1007.3 -0.6 81
2018-04-28 13:00:00 18.3 17 Este 30 Este 0 1007.7 0.1 80
2018-04-28 12:00:00 18.1 20 Nordeste 30 Este 0 1008.1 0.7 82
2018-04-28 11:00:00 17.7 16 Nordeste 26 Nordeste 0 1007.9 0.7 86
2018-04-28 10:00:00 19.3 13 Nordeste 22 Nordeste 0 1007.6 0.8 79
2018-04-28 09:00:00 17.3 11 Nordeste 17 Norte 0 1007.4 1 91
2018-04-28 08:00:00 15.1 8 Norte 13 Nordeste 0 1007.2 0.5 97
2018-04-28 07:00:00 14.5 4 Nordeste 8 Nordeste 0 1006.8 -0.1 97
2018-04-28 06:00:00 14.9 2 Sudoeste 8 Oeste 0 1006.4 -0.8 96
2018-04-28 05:00:00 15 3 Sudoeste -- -- 0 1006.7 -1.4 95
2018-04-28 04:00:00 15.9 2 Sur 9 Nordeste 0 1006.9 -1.5 93
2018-04-28 03:00:00 16.8 5 Nordeste 13 Nordeste 0 1007.2 -1 91
2018-04-28 02:00:00 17.1 6 Nordeste 21 Nordeste 0 1008.1 0.1 93
2018-04-28 01:00:00 17.6 15 Nordeste 24 Nordeste 0 1008.4 1 91
2018-04-28 00:00:00 17.6 10 Nordeste 18 Nordeste 0 1008.2 1.4 93